Islamorada, FL

2:47 PM EDT on August 30, 2016 (GMT -0400)
Oceana | | Change Station

Elev 26 ft 24.92 °N, 80.63 °W | Updated 21 seconds ago

Rain
Rain
80.6 °F
Feels Like 87 °F
N
4.2
Wind Variable Wind from WSW
Gusts 7.4 mph

Today
High -- | Low -- °F
--% Chance of Precip.
Yesterday
High -- | Low -- °F
Precip. -- in
Pressure 29.95 in
Visibility 8.0 miles
Clouds Few 200 ft
Scattered Clouds 800 ft
Overcast 1400 ft
Heat Index 87 °F
Dew Point 77 °F
Humidity 89%
Rainfall 1.30 in
Snow Depth Not available.
7:02 AM 7:42 PM
Waning Crescent, 3% visible
SPECI KHST 301838Z AUTO 18011KT 8SM RA FEW002 SCT008 OVC014 24/24 A2995 RMK AO2 CIG 012V017
Pressure 29.95 in
Visibility 8.0 miles
Clouds Few 200 ft
Scattered Clouds 800 ft
Overcast 1400 ft
Heat Index 87 °F
Dew Point 77 °F
Humidity 89%
Rainfall 1.30 in
Snow Depth Not available.
7:02 AM 7:42 PM
Waning Crescent, 3% visible
SPECI KHST 301838Z AUTO 18011KT 8SM RA FEW002 SCT008 OVC014 24/24 A2995 RMK AO2 CIG 012V017

10-Day Weather Forecast

Almanac

Astronomy

Aug. 30, 2016 Rise Set
Actual Time
Civil Twilight
Nautical Twilight
Astronomical Twilight
Moon
Length of Visible Light
Length of Day
Tomorrow will be .
, % of the Moon is Illuminated

Today's Extremes

State Highs State Lows

Community

WunderPhotos

Upload Photos

1,935,875 photos uploaded!

WunderBlog® & News

Nearby

Air Quality

  Air Quality AQ Index Pollutant
Not available.

Snow Depth

Station Depth Elevation

Earthquake Activity

City Distance Mag. Time & Date
Minimum magnitude displayed is 2.5.

Coastal Water Temperatures

Place Temperature

Stations

Nearby Weather Stations

Station Location Temp. Windchill Dew Point Humidity Wind Precip. Elev Updated Type
                   

Watches & Warnings

There are currently no watches in effect.